• Join FlightAware (Why Join?)
  • Login
  • US Flag 
01:07AM EST


 

Airport Tracker/Info


-or-


 

Live Flight TrackerFlight Track Log ✈ CTL18 ✈ 22-Apr-2013 ✈ KPTK - KMBS

Flight Track Log - Related Links

Times and Time Zones

All times are in EDT time to prevent confusion due to time zone crossing. See the CTL18 flight status page for this flight to view local times or setup timezone preferences in your user account.

Time Position Orientation Groundspeed Altitude Reporting Facility
EDT Latitude Longitude Course Direction KTS MPH feet Rate Location/Type
07:04PM 42.6656 -83.3983 360° North 104 120 1,500  Level Cleveland Center
07:06PM 42.7361 -83.3991 14° North  Level FlightAware Approximate
07:13PM 42.9626 -83.4354 321° Northwest  Level FlightAware Approximate
07:14PM 42.9899 -83.4656 321° Northwest  Level FlightAware Approximate
07:15PM 43.0173 -83.4958 321° Northwest  Level FlightAware Approximate
07:16PM 43.0447 -83.5260 321° Northwest  Level FlightAware Approximate
07:17PM 43.0721 -83.5563 321° Northwest  Level FlightAware Approximate
07:18PM 43.0994 -83.5865 321° Northwest  Level FlightAware Approximate
07:19PM 43.1268 -83.6168 321° Northwest  Level FlightAware Approximate
07:20PM 43.1541 -83.6472 321° Northwest  Level FlightAware Approximate
07:21PM 43.1815 -83.6775 321° Northwest  Level FlightAware Approximate
07:22PM 43.2088 -83.7079 321° Northwest  Level FlightAware Approximate
07:23PM 43.2354 -83.7395 318° Northwest  Level FlightAware Approximate
07:24PM 43.2617 -83.7716 318° Northwest  Level FlightAware Approximate
07:25PM 43.2880 -83.8037 318° Northwest  Level FlightAware Approximate
07:26PM 43.3143 -83.8358 318° Northwest  Level FlightAware Approximate
07:27PM 43.3405 -83.8680 318° Northwest  Level FlightAware Approximate
07:28PM 43.3668 -83.9002 324° Northwest  Level FlightAware Approximate
07:29PM 43.3953 -83.9286 324° Northwest  Level FlightAware Approximate
07:30PM 43.4238 -83.9570 324° Northwest  Level FlightAware Approximate
07:31PM 43.4523 -83.9855 324° Northwest  Level FlightAware Approximate
07:32PM 43.4807 -84.0140 324° Northwest  Level FlightAware Approximate
07:33PM 43.5064 -84.0462 305° West  Level FlightAware Approximate